Time;durP1;ratioP1;P1;durP2;ratioP2;P2;SDS_P1;SDS_P2;PMS_P1;PMS_P2;Temp;Humidity;BMP_temperature;BMP_pressure;BME280_temperature;BME280_humidity;BME280_pressure;Samples;Min_cycle;Max_cycle;Signal;HPM_P1;HPM_P2
2022/07/13 00:01:11;;;;;;;;;3.00;3.00;;;;;;;;4955053;28;8831;-77
2022/07/13 00:03:38;;;;;;;;;3.00;3.00;;;;;;;;4959046;28;8889;-77
2022/07/13 00:06:07;;;;;;;;;1.60;1.60;;;;;;;;4956823;28;8863;-77
2022/07/13 00:08:34;;;;;;;;;2.00;2.00;;;;;;;;4958081;28;8885;-78
2022/07/13 00:11:02;;;;;;;;;1.40;1.40;;;;;;;;4961129;28;8863;-78
2022/07/13 00:13:29;;;;;;;;;2.80;2.80;;;;;;;;4958211;28;8847;-78
2022/07/13 00:15:56;;;;;;;;;1.60;1.60;;;;;;;;4955522;28;8930;-78
2022/07/13 00:18:24;;;;;;;;;2.00;2.00;;;;;;;;4954687;28;8905;-78
2022/07/13 00:20:51;;;;;;;;;2.20;2.20;;;;;;;;4957873;28;9027;-77
2022/07/13 00:23:20;;;;;;;;;3.00;2.80;;;;;;;;4954138;28;8877;-77
2022/07/13 00:25:47;;;;;;;;;3.00;3.00;;;;;;;;4959384;28;8894;-78
2022/07/13 00:28:14;;;;;;;;;2.00;2.00;;;;;;;;4955957;28;8979;-78
2022/07/13 00:30:41;;;;;;;;;2.00;2.00;;;;;;;;4962416;28;8816;-78
2022/07/13 00:33:09;;;;;;;;;2.00;1.00;;;;;;;;4959824;28;8906;-78
2022/07/13 00:35:36;;;;;;;;;3.60;1.80;;;;;;;;4961010;28;9719;-78
2022/07/13 00:38:03;;;;;;;;;3.50;2.00;;;;;;;;4959363;28;8895;-78
2022/07/13 00:40:32;;;;;;;;;2.50;2.50;;;;;;;;4961066;28;8893;-77
2022/07/13 00:42:59;;;;;;;;;1.80;1.80;;;;;;;;4955243;28;8898;-78
2022/07/13 00:45:26;;;;;;;;;2.00;2.00;;;;;;;;4957830;28;8891;-78
2022/07/13 00:47:53;;;;;;;;;1.80;1.80;;;;;;;;4955873;28;8859;-78
2022/07/13 00:50:22;;;;;;;;;3.00;1.40;;;;;;;;4951176;28;9034;-78
2022/07/13 00:52:50;;;;;;;;;1.00;1.00;;;;;;;;4955841;28;8925;-78
2022/07/13 00:55:17;;;;;;;;;3.00;2.00;;;;;;;;4957362;28;8891;-78
2022/07/13 00:57:46;;;;;;;;;1.00;1.00;;;;;;;;4950748;28;9035;-78
2022/07/13 01:00:15;;;;;;;;;2.80;2.80;;;;;;;;4952941;28;8995;-78
2022/07/13 01:02:44;;;;;;;;;1.60;1.60;;;;;;;;4953650;28;8901;-78
2022/07/13 01:05:12;;;;;;;;;1.40;1.40;;;;;;;;4963707;28;8862;-78
2022/07/13 01:07:40;;;;;;;;;2.00;2.00;;;;;;;;4961671;28;9015;-77
2022/07/13 01:10:09;;;;;;;;;2.20;2.20;;;;;;;;4959884;28;8901;-78
2022/07/13 01:12:38;;;;;;;;;1.00;1.00;;;;;;;;4962976;28;8863;-78
2022/07/13 01:15:08;;;;;;;;;2.60;2.00;;;;;;;;4962860;28;8900;-78
2022/07/13 01:17:37;;;;;;;;;2.00;2.00;;;;;;;;4955705;28;8898;-78
2022/07/13 01:20:06;;;;;;;;;2.40;2.40;;;;;;;;4958730;28;8893;-78
2022/07/13 01:22:35;;;;;;;;;1.00;1.00;;;;;;;;4961571;28;8974;-77
2022/07/13 01:25:05;;;;;;;;;1.80;1.80;;;;;;;;4959648;28;8903;-78
2022/07/13 01:27:33;;;;;;;;;1.40;1.40;;;;;;;;4960616;28;8899;-77
2022/07/13 01:30:00;;;;;;;;;2.20;2.20;;;;;;;;4963125;28;9723;-78
2022/07/13 01:32:28;;;;;;;;;2.75;2.00;;;;;;;;4965276;28;8906;-78
2022/07/13 01:34:55;;;;;;;;;2.50;2.50;;;;;;;;4962151;28;9008;-78
2022/07/13 01:37:22;;;;;;;;;2.25;2.25;;;;;;;;4965227;28;8877;-78
2022/07/13 01:39:49;;;;;;;;;2.00;2.00;;;;;;;;4961206;28;8867;-78
2022/07/13 01:42:18;;;;;;;;;2.00;2.00;;;;;;;;4955903;28;8878;-77
2022/07/13 01:44:47;;;;;;;;;2.50;2.50;;;;;;;;4942348;28;8857;-77
2022/07/13 01:47:14;;;;;;;;;2.00;2.00;;;;;;;;4957201;28;8899;-77
2022/07/13 01:49:41;;;;;;;;;2.50;2.50;;;;;;;;4958765;28;9630;-77
2022/07/13 01:52:09;;;;;;;;;1.75;1.75;;;;;;;;4942309;28;8891;-77
2022/07/13 01:54:36;;;;;;;;;4.25;2.25;;;;;;;;4959829;28;8885;-77
2022/07/13 01:57:04;;;;;;;;;2.00;2.00;;;;;;;;4961108;28;8846;-77
2022/07/13 01:59:32;;;;;;;;;2.25;2.25;;;;;;;;4959189;28;8910;-78
2022/07/13 02:01:59;;;;;;;;;4.75;2.25;;;;;;;;4961137;28;8820;-78
2022/07/13 02:04:27;;;;;;;;;2.00;2.00;;;;;;;;4959222;28;8869;-77
2022/07/13 02:06:54;;;;;;;;;2.00;2.00;;;;;;;;4965080;28;8881;-78
2022/07/13 02:09:21;;;;;;;;;2.25;2.25;;;;;;;;4956583;28;9576;-78
2022/07/13 02:11:49;;;;;;;;;2.25;2.25;;;;;;;;4965507;28;8869;-77
2022/07/13 02:14:16;;;;;;;;;2.00;2.00;;;;;;;;4960893;28;8892;-78
2022/07/13 02:16:45;;;;;;;;;1.25;1.00;;;;;;;;4952977;28;8877;-78
2022/07/13 02:19:12;;;;;;;;;4.00;2.75;;;;;;;;4964855;28;8915;-77
2022/07/13 02:21:39;;;;;;;;;2.75;2.75;;;;;;;;4958864;28;8891;-77
2022/07/13 02:24:06;;;;;;;;;2.25;1.00;;;;;;;;4956967;28;9014;-78
2022/07/13 02:26:34;;;;;;;;;3.00;3.00;;;;;;;;4958350;28;8923;-78
2022/07/13 02:29:01;;;;;;;;;2.00;2.00;;;;;;;;4945903;28;8871;-78
2022/07/13 02:31:28;;;;;;;;;2.50;2.50;;;;;;;;4956511;28;8810;-78
2022/07/13 02:33:57;;;;;;;;;2.00;2.00;;;;;;;;4951131;28;8908;-78
2022/07/13 02:36:24;;;;;;;;;2.25;2.00;;;;;;;;4953366;28;9708;-78
2022/07/13 02:38:51;;;;;;;;;0.25;0.25;;;;;;;;4956462;28;8921;-77
2022/07/13 02:41:18;;;;;;;;;3.50;3.50;;;;;;;;4959579;28;8875;-78
2022/07/13 02:43:46;;;;;;;;;2.00;2.00;;;;;;;;4961504;28;8939;-77
2022/07/13 02:46:14;;;;;;;;;3.25;2.75;;;;;;;;4959913;28;9604;-78
2022/07/13 02:48:41;;;;;;;;;2.25;2.25;;;;;;;;4953922;28;8974;-77
2022/07/13 02:51:09;;;;;;;;;2.50;2.50;;;;;;;;4961269;28;8904;-78
2022/07/13 02:53:37;;;;;;;;;1.00;1.00;;;;;;;;4959645;28;8923;-79
2022/07/13 02:56:06;;;;;;;;;2.75;2.75;;;;;;;;4966627;28;8875;-77
2022/07/13 02:58:34;;;;;;;;;1.00;1.00;;;;;;;;4958963;28;8952;-79
2022/07/13 03:01:01;;;;;;;;;2.00;2.00;;;;;;;;4954360;28;8913;-80
2022/07/13 03:03:28;;;;;;;;;3.25;1.75;;;;;;;;4962087;28;8881;-78
2022/07/13 03:05:57;;;;;;;;;2.00;2.00;;;;;;;;4956608;28;8843;-79
2022/07/13 03:08:26;;;;;;;;;1.50;1.50;;;;;;;;4955514;28;8915;-78
2022/07/13 03:10:53;;;;;;;;;4.00;2.00;;;;;;;;4964529;28;8885;-78
2022/07/13 03:13:21;;;;;;;;;3.00;3.00;;;;;;;;4963750;28;8917;-79
2022/07/13 03:15:48;;;;;;;;;1.00;1.00;;;;;;;;4958712;28;8873;-80
2022/07/13 03:18:15;;;;;;;;;2.00;2.00;;;;;;;;4958476;28;8902;-78
2022/07/13 03:20:43;;;;;;;;;2.75;2.75;;;;;;;;4957566;28;8916;-80
2022/07/13 03:23:10;;;;;;;;;2.25;2.25;;;;;;;;4958140;28;8919;-79
2022/07/13 03:25:39;;;;;;;;;4.00;3.00;;;;;;;;4956530;28;8917;-78
2022/07/13 03:28:06;;;;;;;;;2.00;2.00;;;;;;;;4956647;28;8875;-78
2022/07/13 03:30:33;;;;;;;;;2.50;2.50;;;;;;;;4962456;28;8938;-78
2022/07/13 03:33:00;;;;;;;;;3.50;2.75;;;;;;;;4962265;28;8888;-78
2022/07/13 03:35:28;;;;;;;;;2.00;2.00;;;;;;;;4962620;28;9748;-78
2022/07/13 03:37:55;;;;;;;;;3.75;3.75;;;;;;;;4962556;28;8883;-79
2022/07/13 03:40:22;;;;;;;;;2.25;2.25;;;;;;;;4961481;28;8871;-78
2022/07/13 03:42:51;;;;;;;;;4.25;4.00;;;;;;;;4958411;28;8878;-78
2022/07/13 03:45:18;;;;;;;;;2.00;2.00;;;;;;;;4960507;28;8888;-79
2022/07/13 03:47:45;;;;;;;;;2.00;2.00;;;;;;;;4953203;28;8930;-78
2022/07/13 03:50:13;;;;;;;;;2.00;2.00;;;;;;;;4956326;28;8994;-78
2022/07/13 03:52:40;;;;;;;;;2.00;2.00;;;;;;;;4960842;28;8893;-79
2022/07/13 03:55:08;;;;;;;;;3.20;3.20;;;;;;;;4961827;28;9676;-78
2022/07/13 03:57:37;;;;;;;;;1.25;1.25;;;;;;;;4960882;28;8863;-78
2022/07/13 04:00:09;;;;;;;;;2.40;2.40;;;;;;;;4957407;28;8892;-79
2022/07/13 04:02:36;;;;;;;;;2.00;2.00;;;;;;;;4955834;28;8885;-78
2022/07/13 04:05:04;;;;;;;;;3.75;2.75;;;;;;;;4956441;28;9651;-79
2022/07/13 04:07:31;;;;;;;;;2.00;1.50;;;;;;;;4956870;28;8883;-79
2022/07/13 04:09:58;;;;;;;;;3.00;2.00;;;;;;;;4960951;28;8953;-80
2022/07/13 04:12:25;;;;;;;;;3.00;3.00;;;;;;;;4961542;28;8871;-79
2022/07/13 04:14:53;;;;;;;;;2.80;2.00;;;;;;;;4954486;28;8859;-79
2022/07/13 04:17:22;;;;;;;;;7.00;3.00;;;;;;;;4959472;28;8861;-79
2022/07/13 04:19:49;;;;;;;;;1.60;1.60;;;;;;;;4951994;28;8881;-79
2022/07/13 04:22:16;;;;;;;;;2.80;2.80;;;;;;;;4959107;28;9696;-79
2022/07/13 04:24:45;;;;;;;;;2.80;2.80;;;;;;;;4954621;28;8881;-79
2022/07/13 04:27:13;;;;;;;;;2.00;2.00;;;;;;;;4962398;28;8955;-79
2022/07/13 04:29:41;;;;;;;;;2.00;2.00;;;;;;;;4942717;28;8875;-79
2022/07/13 04:32:09;;;;;;;;;2.00;2.00;;;;;;;;4961055;28;8901;-79
2022/07/13 04:34:37;;;;;;;;;2.80;2.80;;;;;;;;4962026;28;8923;-79
2022/07/13 04:37:05;;;;;;;;;2.00;2.00;;;;;;;;4958057;28;8994;-79
2022/07/13 04:39:32;;;;;;;;;2.00;2.00;;;;;;;;4961683;28;9004;-79
2022/07/13 04:42:00;;;;;;;;;3.00;3.00;;;;;;;;4955063;28;9029;-79
2022/07/13 04:44:27;;;;;;;;;3.00;3.00;;;;;;;;4957463;28;8899;-79
2022/07/13 04:46:54;;;;;;;;;1.60;1.60;;;;;;;;4958251;28;8868;-80
2022/07/13 04:49:22;;;;;;;;;2.00;2.00;;;;;;;;4956407;28;8875;-80
2022/07/13 04:51:51;;;;;;;;;1.20;1.20;;;;;;;;4958853;28;8851;-79
2022/07/13 04:54:19;;;;;;;;;2.75;2.75;;;;;;;;4956346;28;8893;-79
2022/07/13 04:56:46;;;;;;;;;3.00;3.00;;;;;;;;4964854;28;8882;-79
2022/07/13 04:59:14;;;;;;;;;1.80;1.80;;;;;;;;4954472;28;9671;-78
2022/07/13 05:01:42;;;;;;;;;0.60;0.60;;;;;;;;4957677;28;8839;-79
2022/07/13 05:04:09;;;;;;;;;2.80;2.80;;;;;;;;4958709;28;8883;-76
2022/07/13 05:06:37;;;;;;;;;3.00;3.00;;;;;;;;4962533;28;8894;-79
2022/07/13 05:11:49;;;;;;;;;2.40;2.40;;;;;;;;4929486;28;8893;-83
2022/07/13 05:14:17;;;;;;;;;2.00;2.00;;;;;;;;4957887;28;8925;-82
2022/07/13 05:16:44;;;;;;;;;2.40;2.40;;;;;;;;4961356;28;8887;-83
2022/07/13 05:19:12;;;;;;;;;2.60;2.60;;;;;;;;4944964;28;8883;-86
2022/07/13 05:21:39;;;;;;;;;2.00;2.00;;;;;;;;4957992;28;8885;-81
2022/07/13 05:24:28;;;;;;;;;4.40;3.00;;;;;;;;4948938;28;8828;-82
2022/07/13 05:26:55;;;;;;;;;3.00;3.00;;;;;;;;4958092;28;8863;-79
2022/07/13 05:29:23;;;;;;;;;2.60;2.60;;;;;;;;4966797;28;8884;-83
2022/07/13 05:31:50;;;;;;;;;3.00;3.00;;;;;;;;4964748;28;8835;-82
2022/07/13 05:34:17;;;;;;;;;2.60;2.60;;;;;;;;4958246;28;8916;-81
2022/07/13 05:36:45;;;;;;;;;0.20;0.20;;;;;;;;4961671;28;8881;-82
2022/07/13 05:39:12;;;;;;;;;3.00;3.00;;;;;;;;4946225;28;8897;-81
2022/07/13 05:41:41;;;;;;;;;3.00;3.00;;;;;;;;4937724;28;9347;-85
2022/07/13 05:44:08;;;;;;;;;3.00;3.00;;;;;;;;4956462;28;8881;-82
2022/07/13 05:46:36;;;;;;;;;3.80;2.80;;;;;;;;4958710;28;8889;-81
2022/07/13 05:49:05;;;;;;;;;3.00;3.00;;;;;;;;4952428;28;8857;-81
2022/07/13 05:51:32;;;;;;;;;2.20;2.20;;;;;;;;4947348;28;9697;-78
2022/07/13 05:54:03;;;;;;;;;4.00;4.00;;;;;;;;4953552;28;8897;-78
2022/07/13 05:56:33;;;;;;;;;3.20;3.20;;;;;;;;4939753;28;8889;-81
2022/07/13 05:59:02;;;;;;;;;2.80;2.80;;;;;;;;4959301;28;8981;-79
2022/07/13 06:01:29;;;;;;;;;4.40;3.80;;;;;;;;4963392;28;8828;-80
2022/07/13 06:03:57;;;;;;;;;5.00;3.60;;;;;;;;4961100;28;9769;-80
2022/07/13 06:06:25;;;;;;;;;1.00;1.00;;;;;;;;4959858;28;8974;-81
2022/07/13 06:08:52;;;;;;;;;3.80;2.20;;;;;;;;4946806;28;8924;-79
2022/07/13 06:11:22;;;;;;;;;3.00;3.00;;;;;;;;4967958;28;8883;-76
2022/07/13 06:13:50;;;;;;;;;2.20;2.20;;;;;;;;4960952;28;9028;-80
2022/07/13 06:16:20;;;;;;;;;4.00;4.00;;;;;;;;4938805;28;8879;-83
2022/07/13 06:18:48;;;;;;;;;4.00;2.20;;;;;;;;4952376;28;8933;-85
2022/07/13 06:21:17;;;;;;;;;2.40;2.40;;;;;;;;4956410;28;8871;-79
2022/07/13 06:23:45;;;;;;;;;3.00;3.00;;;;;;;;4957334;28;9628;-83
2022/07/13 06:26:12;;;;;;;;;2.40;2.40;;;;;;;;4957124;28;9027;-79
2022/07/13 06:28:39;;;;;;;;;2.00;2.00;;;;;;;;4958143;28;8885;-80
2022/07/13 06:31:07;;;;;;;;;2.00;2.00;;;;;;;;4959184;28;9432;-82
2022/07/13 06:33:36;;;;;;;;;3.60;2.00;;;;;;;;4958847;28;8875;-82
2022/07/13 06:36:04;;;;;;;;;1.60;1.60;;;;;;;;4955144;28;8893;-80
2022/07/13 06:38:31;;;;;;;;;2.40;1.80;;;;;;;;4958437;28;8899;-85
2022/07/13 06:40:59;;;;;;;;;4.60;3.00;;;;;;;;4959659;28;8899;-82
2022/07/13 06:43:26;;;;;;;;;2.00;2.00;;;;;;;;4953037;28;8995;-82
2022/07/13 06:45:53;;;;;;;;;2.40;2.40;;;;;;;;4963809;28;8885;-82
2022/07/13 06:48:20;;;;;;;;;3.00;3.00;;;;;;;;4952172;28;8891;-83
2022/07/13 06:50:49;;;;;;;;;3.00;3.00;;;;;;;;4961150;28;8869;-82
2022/07/13 06:53:16;;;;;;;;;1.80;1.80;;;;;;;;4959072;28;8914;-81
2022/07/13 06:55:45;;;;;;;;;2.80;2.00;;;;;;;;4940494;28;8905;-79
2022/07/13 06:58:12;;;;;;;;;2.20;2.20;;;;;;;;4952278;28;9848;-79
2022/07/13 07:00:39;;;;;;;;;2.00;2.00;;;;;;;;4956065;28;8816;-79
2022/07/13 07:03:06;;;;;;;;;2.20;2.20;;;;;;;;4953318;28;8866;-78
2022/07/13 07:05:33;;;;;;;;;1.60;1.60;;;;;;;;4939137;28;8976;-79
2022/07/13 07:08:02;;;;;;;;;3.60;3.60;;;;;;;;4954802;28;9756;-79
2022/07/13 07:10:30;;;;;;;;;2.80;2.80;;;;;;;;4954819;28;9027;-80
2022/07/13 07:12:57;;;;;;;;;4.80;2.80;;;;;;;;4957077;28;8860;-80
2022/07/13 07:15:26;;;;;;;;;2.00;2.00;;;;;;;;4960800;28;8879;-78
2022/07/13 07:17:53;;;;;;;;;1.80;1.80;;;;;;;;4955186;28;8940;-79
2022/07/13 07:20:20;;;;;;;;;2.80;2.80;;;;;;;;4958831;28;8887;-79
2022/07/13 07:22:48;;;;;;;;;2.40;2.40;;;;;;;;4950095;28;9750;-79
2022/07/13 07:25:16;;;;;;;;;2.00;2.00;;;;;;;;4955565;28;8897;-78
2022/07/13 07:27:44;;;;;;;;;2.20;2.20;;;;;;;;4949149;28;9008;-79
2022/07/13 07:30:12;;;;;;;;;3.40;3.40;;;;;;;;4953325;28;9006;-79
2022/07/13 07:32:40;;;;;;;;;3.80;3.20;;;;;;;;4955226;28;8883;-80
2022/07/13 07:35:08;;;;;;;;;1.80;1.80;;;;;;;;4939863;28;9021;-85
2022/07/13 07:37:39;;;;;;;;;3.00;2.40;;;;;;;;4962296;28;8865;-80
2022/07/13 07:40:07;;;;;;;;;3.20;3.20;;;;;;;;4942573;28;8879;-80
2022/07/13 07:42:37;;;;;;;;;3.20;2.40;;;;;;;;4951054;28;8886;-78
2022/07/13 07:45:05;;;;;;;;;2.60;2.60;;;;;;;;4954474;28;9123;-78
2022/07/13 07:47:32;;;;;;;;;3.00;3.00;;;;;;;;4955235;28;9771;-78
2022/07/13 07:50:00;;;;;;;;;3.20;3.20;;;;;;;;4950814;28;8996;-79
2022/07/13 07:52:28;;;;;;;;;2.40;2.40;;;;;;;;4951614;28;8877;-79
2022/07/13 07:54:55;;;;;;;;;5.40;4.00;;;;;;;;4938101;28;8939;-79
2022/07/13 07:57:23;;;;;;;;;2.00;2.00;;;;;;;;4952238;28;9031;-82
2022/07/13 07:59:51;;;;;;;;;4.60;3.00;;;;;;;;4959985;28;9689;-78
2022/07/13 08:02:18;;;;;;;;;2.80;2.80;;;;;;;;4956394;28;9612;-79
2022/07/13 08:04:47;;;;;;;;;2.80;2.80;;;;;;;;4960572;28;8881;-76
2022/07/13 08:07:14;;;;;;;;;2.80;2.80;;;;;;;;4959979;28;8873;-82
2022/07/13 08:09:41;;;;;;;;;4.80;4.00;;;;;;;;4957491;28;8894;-78
2022/07/13 08:12:09;;;;;;;;;4.00;4.00;;;;;;;;4958835;28;8894;-77
2022/07/13 08:14:36;;;;;;;;;3.60;3.20;;;;;;;;4952024;28;8943;-76
2022/07/13 08:17:05;;;;;;;;;2.60;2.60;;;;;;;;4954046;28;8836;-77
2022/07/13 08:19:32;;;;;;;;;3.80;2.20;;;;;;;;4950785;28;8872;-79
2022/07/13 08:22:02;;;;;;;;;4.80;3.80;;;;;;;;4955260;28;9003;-79
2022/07/13 08:24:31;;;;;;;;;4.00;4.00;;;;;;;;4959830;28;8899;-79
2022/07/13 08:27:01;;;;;;;;;3.00;3.00;;;;;;;;4958069;28;8890;-77
2022/07/13 08:29:28;;;;;;;;;3.00;2.80;;;;;;;;4951403;28;8893;-79
2022/07/13 08:31:56;;;;;;;;;2.40;1.00;;;;;;;;4954540;28;9475;-77
2022/07/13 08:39:54;;;;;;;;;2.80;2.80;;;;;;;;4958116;28;8848;-77
2022/07/13 08:42:21;;;;;;;;;3.00;3.00;;;;;;;;4957049;28;8924;-78
2022/07/13 08:44:49;;;;;;;;;2.80;2.80;;;;;;;;4956648;28;8883;-79
2022/07/13 08:47:16;;;;;;;;;2.80;2.80;;;;;;;;4956752;28;8879;-77
2022/07/13 08:49:45;;;;;;;;;2.00;2.00;;;;;;;;4955879;28;8882;-79
2022/07/13 08:52:13;;;;;;;;;2.00;2.00;;;;;;;;4955845;28;8901;-80
2022/07/13 08:54:40;;;;;;;;;3.00;3.00;;;;;;;;4955582;28;8879;-80
2022/07/13 08:57:07;;;;;;;;;3.80;3.80;;;;;;;;4955470;28;8891;-79
2022/07/13 08:59:35;;;;;;;;;4.00;4.00;;;;;;;;4957884;28;8877;-81
2022/07/13 09:02:05;;;;;;;;;4.40;3.00;;;;;;;;4964749;28;8924;-85
2022/07/13 09:04:34;;;;;;;;;2.00;2.00;;;;;;;;4960748;28;8887;-81
2022/07/13 09:07:06;;;;;;;;;5.60;4.00;;;;;;;;4951360;28;9607;-85
2022/07/13 09:09:35;;;;;;;;;3.00;3.00;;;;;;;;4943869;28;8861;-83
2022/07/13 09:12:28;;;;;;;;;4.40;3.00;;;;;;;;4956949;28;8923;-81
2022/07/13 09:14:56;;;;;;;;;3.00;3.00;;;;;;;;4935376;28;8910;-81
2022/07/13 09:17:29;;;;;;;;;3.00;3.00;;;;;;;;4949916;28;8890;-83
2022/07/13 09:20:01;;;;;;;;;3.00;3.00;;;;;;;;4957465;28;9003;-78
2022/07/13 09:22:30;;;;;;;;;3.00;3.00;;;;;;;;4953421;28;8860;-81
2022/07/13 09:24:58;;;;;;;;;4.60;4.60;;;;;;;;4936396;28;9683;-80
2022/07/13 09:27:25;;;;;;;;;4.40;4.40;;;;;;;;4937476;28;8952;-81
2022/07/13 09:29:53;;;;;;;;;4.40;3.60;;;;;;;;4961809;28;8865;-78
2022/07/13 09:32:20;;;;;;;;;1.60;1.60;;;;;;;;4965938;28;9507;-79
2022/07/13 09:34:51;;;;;;;;;4.20;3.40;;;;;;;;4959970;28;8901;-80
2022/07/13 09:37:21;;;;;;;;;5.00;3.40;;;;;;;;4962365;28;8869;-78
2022/07/13 09:40:00;;;;;;;;;2.00;2.00;;;;;;;;4966182;28;8879;-80
2022/07/13 09:42:29;;;;;;;;;3.00;3.00;;;;;;;;4962984;28;8899;-78
2022/07/13 09:47:43;;;;;;;;;3.60;3.60;;;;;;;;4955897;28;8867;-79
2022/07/13 09:50:11;;;;;;;;;3.80;3.80;;;;;;;;4926631;28;8908;-81
2022/07/13 09:52:39;;;;;;;;;4.80;4.80;;;;;;;;4957792;28;8905;-80
2022/07/13 09:55:10;;;;;;;;;3.80;2.80;;;;;;;;4962357;28;8879;-81
2022/07/13 09:57:44;;;;;;;;;4.20;4.20;;;;;;;;4959434;28;8871;-80
2022/07/13 10:00:14;;;;;;;;;3.00;3.00;;;;;;;;4958046;28;8869;-81
2022/07/13 10:02:42;;;;;;;;;3.00;3.00;;;;;;;;4957302;28;8962;-77
2022/07/13 10:05:10;;;;;;;;;4.00;4.00;;;;;;;;4956321;28;8911;-79
2022/07/13 10:07:38;;;;;;;;;5.00;4.00;;;;;;;;4954423;28;8912;-79
2022/07/13 10:10:08;;;;;;;;;4.00;2.00;;;;;;;;4961309;28;8996;-78
2022/07/13 10:12:37;;;;;;;;;3.00;3.00;;;;;;;;4958369;28;8949;-84
2022/07/13 10:15:06;;;;;;;;;3.20;3.20;;;;;;;;4964852;28;8867;-81
2022/07/13 10:17:34;;;;;;;;;3.00;3.00;;;;;;;;4959538;28;8882;-81
2022/07/13 10:20:06;;;;;;;;;3.00;3.00;;;;;;;;4962056;28;8874;-79
2022/07/13 10:22:40;;;;;;;;;1.80;1.80;;;;;;;;4959655;28;8948;-80
2022/07/13 10:25:11;;;;;;;;;3.60;3.60;;;;;;;;4964960;28;8885;-84
2022/07/13 10:27:41;;;;;;;;;4.00;4.00;;;;;;;;4955989;28;8851;-84
2022/07/13 10:30:09;;;;;;;;;4.00;4.00;;;;;;;;4956077;28;9017;-82
2022/07/13 10:32:38;;;;;;;;;6.80;4.00;;;;;;;;4958523;28;9429;-84
2022/07/13 10:35:09;;;;;;;;;3.40;3.40;;;;;;;;4950779;28;8863;-81
2022/07/13 10:38:14;;;;;;;;;2.40;2.40;;;;;;;;4963756;28;9066;-82
2022/07/13 10:40:44;;;;;;;;;4.00;4.00;;;;;;;;4960215;28;8876;-78
2022/07/13 10:43:15;;;;;;;;;4.00;4.00;;;;;;;;4956479;28;8877;-80
2022/07/13 10:45:44;;;;;;;;;4.40;4.00;;;;;;;;4959247;28;8890;-82
2022/07/13 10:48:44;;;;;;;;;3.00;3.00;;;;;;;;4954274;28;8922;-78
2022/07/13 10:51:23;;;;;;;;;5.00;5.00;;;;;;;;4958495;28;8964;-78
2022/07/13 10:54:12;;;;;;;;;5.00;3.60;;;;;;;;4967111;28;8883;-77
2022/07/13 10:57:14;;;;;;;;;2.60;2.60;;;;;;;;4952883;28;9290;-89
2022/07/13 10:59:49;;;;;;;;;4.80;3.60;;;;;;;;4959800;28;8896;-90
2022/07/13 11:02:47;;;;;;;;;5.00;5.00;;;;;;;;4956149;28;8887;-92
2022/07/13 11:05:15;;;;;;;;;3.40;3.40;;;;;;;;4961349;28;8949;-85
2022/07/13 11:07:44;;;;;;;;;3.20;3.20;;;;;;;;4958291;28;8865;-87
2022/07/13 11:10:19;;;;;;;;;1.00;1.00;;;;;;;;4966826;28;8891;-91
2022/07/13 11:12:58;;;;;;;;;37.00;32.40;;;;;;;;4959803;28;8863;-86
2022/07/13 11:15:43;;;;;;;;;5.00;5.00;;;;;;;;4958599;28;8877;-90
2022/07/13 11:18:28;;;;;;;;;1.00;1.00;;;;;;;;4944654;28;8894;-96
2022/07/13 11:21:00;;;;;;;;;3.00;3.00;;;;;;;;4954168;28;9022;-84
2022/07/13 11:26:30;;;;;;;;;5.00;4.00;;;;;;;;4943564;28;8851;-86
2022/07/13 11:29:11;;;;;;;;;4.60;3.00;;;;;;;;4959776;28;8858;-86
2022/07/13 11:31:38;;;;;;;;;2.20;2.20;;;;;;;;4959956;28;8969;-84
2022/07/13 11:34:06;;;;;;;;;0.00;0.00;;;;;;;;4972805;28;8877;-84
2022/07/13 11:36:34;;;;;;;;;3.00;3.00;;;;;;;;4961240;28;8893;-86
2022/07/13 11:39:01;;;;;;;;;2.40;2.40;;;;;;;;4962283;28;8940;-83
2022/07/13 11:41:28;;;;;;;;;2.40;2.40;;;;;;;;4956108;28;8897;-89
2022/07/13 11:43:56;;;;;;;;;0.00;0.00;;;;;;;;4960364;28;8924;-93
2022/07/13 11:46:29;;;;;;;;;1.80;1.80;;;;;;;;4965489;28;9022;-95
2022/07/13 11:49:02;;;;;;;;;2.00;1.60;;;;;;;;4966977;28;8885;-95
2022/07/13 11:51:29;;;;;;;;;1.60;1.60;;;;;;;;4968672;28;8885;-93
2022/07/13 11:53:57;;;;;;;;;2.40;2.40;;;;;;;;4948948;28;8887;-95
2022/07/13 11:56:24;;;;;;;;;3.80;3.80;;;;;;;;4955037;28;8884;-94
2022/07/13 11:59:10;;;;;;;;;1.00;1.00;;;;;;;;4975671;28;8970;-91
2022/07/13 12:01:39;;;;;;;;;1.20;1.20;;;;;;;;4976469;28;8805;-91
2022/07/13 12:04:10;;;;;;;;;2.00;2.00;;;;;;;;4965466;28;8908;-92
2022/07/13 12:06:37;;;;;;;;;1.80;1.80;;;;;;;;4970463;28;8899;-90
2022/07/13 12:09:17;;;;;;;;;1.20;1.20;;;;;;;;4967253;28;8947;-90
2022/07/13 12:11:45;;;;;;;;;3.00;3.00;;;;;;;;4966164;28;9037;-92
2022/07/13 12:14:13;;;;;;;;;2.00;2.00;;;;;;;;4970831;28;9024;-93
2022/07/13 12:16:42;;;;;;;;;2.00;2.00;;;;;;;;4940826;28;8865;-94
2022/07/13 12:19:10;;;;;;;;;1.00;1.00;;;;;;;;4967049;28;8890;-90
2022/07/13 12:21:40;;;;;;;;;1.20;1.20;;;;;;;;4959007;28;8870;-95
2022/07/13 12:24:08;;;;;;;;;2.20;2.20;;;;;;;;4962122;28;8993;-88
2022/07/13 12:26:36;;;;;;;;;2.00;2.00;;;;;;;;4931751;28;8868;-85
2022/07/13 12:29:04;;;;;;;;;2.20;2.20;;;;;;;;4961774;28;8863;-85
2022/07/13 12:31:51;;;;;;;;;1.00;1.00;;;;;;;;4963051;28;9503;-87
2022/07/13 12:34:20;;;;;;;;;2.60;2.60;;;;;;;;4961360;28;8984;-86
2022/07/13 12:36:49;;;;;;;;;1.25;1.25;;;;;;;;4959248;28;8903;-87
2022/07/13 12:39:16;;;;;;;;;2.00;2.00;;;;;;;;4960330;28;8897;-86
2022/07/13 12:41:53;;;;;;;;;1.00;1.00;;;;;;;;4963640;28;8888;-85
2022/07/13 12:44:28;;;;;;;;;2.00;2.00;;;;;;;;4960480;28;8903;-95
2022/07/13 12:46:58;;;;;;;;;1.00;1.00;;;;;;;;4970765;28;8895;-87
2022/07/13 12:49:29;;;;;;;;;2.00;1.50;;;;;;;;4969424;28;8853;-90
2022/07/13 12:52:03;;;;;;;;;2.00;2.00;;;;;;;;4965810;28;8897;-92
2022/07/13 12:54:48;;;;;;;;;1.00;1.00;;;;;;;;4966855;28;8923;-90
2022/07/13 12:57:17;;;;;;;;;1.00;1.00;;;;;;;;4965248;28;8880;-87
2022/07/13 13:00:00;;;;;;;;;1.50;1.50;;;;;;;;4966315;28;10183;-95
2022/07/13 13:02:29;;;;;;;;;3.75;3.00;;;;;;;;4962437;28;8796;-94
2022/07/13 13:04:57;;;;;;;;;3.00;3.00;;;;;;;;4971295;28;8893;-95
2022/07/13 13:07:24;;;;;;;;;3.25;3.25;;;;;;;;4943800;28;8880;-88
2022/07/13 13:09:51;;;;;;;;;2.25;2.25;;;;;;;;4965413;28;8898;-96
2022/07/13 13:12:19;;;;;;;;;4.00;3.00;;;;;;;;4968156;28;8871;-90
2022/07/13 13:14:46;;;;;;;;;2.50;2.50;;;;;;;;4960660;28;8887;-87
2022/07/13 13:17:14;;;;;;;;;3.00;3.00;;;;;;;;4961036;28;8918;-92
2022/07/13 13:19:42;;;;;;;;;2.00;2.00;;;;;;;;4966636;28;8860;-91
2022/07/13 13:22:10;;;;;;;;;4.00;3.25;;;;;;;;4962343;28;9005;-90
2022/07/13 13:24:38;;;;;;;;;1.50;1.50;;;;;;;;4963688;28;8986;-87
2022/07/13 13:27:11;;;;;;;;;3.00;3.00;;;;;;;;4957615;28;9298;-84
2022/07/13 13:32:23;;;;;;;;;3.25;3.25;;;;;;;;4957302;28;8853;-85
2022/07/13 13:34:52;;;;;;;;;3.00;3.00;;;;;;;;4959353;28;8905;-84
2022/07/13 13:37:20;;;;;;;;;2.50;2.50;;;;;;;;4963924;28;8848;-86
2022/07/13 13:39:47;;;;;;;;;2.00;2.00;;;;;;;;4968427;28;8875;-88
2022/07/13 13:42:14;;;;;;;;;3.00;3.00;;;;;;;;4964619;28;8858;-89
2022/07/13 13:44:42;;;;;;;;;2.00;2.00;;;;;;;;4959370;28;8954;-87
2022/07/13 13:47:09;;;;;;;;;1.50;1.50;;;;;;;;4958388;28;8875;-88
2022/07/13 13:49:36;;;;;;;;;1.50;1.50;;;;;;;;4956659;28;8895;-86
2022/07/13 13:52:06;;;;;;;;;2.00;2.00;;;;;;;;4957337;28;8873;-85
2022/07/13 13:54:33;;;;;;;;;2.25;2.25;;;;;;;;4957704;28;8915;-92
2022/07/13 13:57:00;;;;;;;;;2.00;2.00;;;;;;;;4963593;28;8881;-87
2022/07/13 13:59:27;;;;;;;;;2.50;2.50;;;;;;;;4957959;28;9033;-87
2022/07/13 14:01:55;;;;;;;;;2.00;2.00;;;;;;;;4959252;28;8847;-87
2022/07/13 14:04:23;;;;;;;;;2.50;2.50;;;;;;;;4956009;28;8869;-88
2022/07/13 14:06:50;;;;;;;;;3.00;3.00;;;;;;;;4955692;28;8853;-87
2022/07/13 14:09:19;;;;;;;;;1.50;1.50;;;;;;;;4956626;28;8894;-87
2022/07/13 14:11:46;;;;;;;;;2.75;2.75;;;;;;;;4952459;28;9071;-81
2022/07/13 14:14:17;;;;;;;;;2.25;2.25;;;;;;;;4949165;28;8883;-84
2022/07/13 14:16:44;;;;;;;;;2.50;2.50;;;;;;;;4955069;28;8896;-84
2022/07/13 14:19:11;;;;;;;;;3.80;3.80;;;;;;;;4954176;28;8886;-80
2022/07/13 14:21:39;;;;;;;;;3.00;3.00;;;;;;;;4958772;28;8836;-89
2022/07/13 14:24:07;;;;;;;;;2.00;2.00;;;;;;;;4945874;28;8891;-86
2022/07/13 14:26:35;;;;;;;;;3.00;3.00;;;;;;;;4962383;28;8877;-84
2022/07/13 14:29:03;;;;;;;;;2.75;2.75;;;;;;;;4961455;28;8869;-87
2022/07/13 14:31:31;;;;;;;;;3.50;3.50;;;;;;;;4957917;28;8952;-88
2022/07/13 14:33:58;;;;;;;;;2.00;2.00;;;;;;;;4946320;28;9629;-86
2022/07/13 14:36:26;;;;;;;;;3.50;3.50;;;;;;;;4957067;28;9672;-86
2022/07/13 14:38:54;;;;;;;;;3.00;3.00;;;;;;;;4962711;28;9638;-86
2022/07/13 14:44:07;;;;;;;;;3.00;3.00;;;;;;;;4890467;29;8891;-86
2022/07/13 14:49:59;;;;;;;;;3.50;3.50;;;;;;;;4945875;28;8848;-86
2022/07/13 14:58:29;;;;;;;;;2.25;2.25;;;;;;;;4915816;29;8974;-82
2022/07/13 15:00:59;;;;;;;;;2.00;2.00;;;;;;;;4946145;28;8964;-88
2022/07/13 15:03:26;;;;;;;;;2.50;2.50;;;;;;;;4960844;28;8881;-84
2022/07/13 15:05:53;;;;;;;;;2.50;2.50;;;;;;;;4957512;28;8988;-84
2022/07/13 15:08:23;;;;;;;;;3.00;3.00;;;;;;;;4937500;28;8881;-80
2022/07/13 15:10:50;;;;;;;;;3.75;3.75;;;;;;;;4957587;28;9012;-83
2022/07/13 15:13:17;;;;;;;;;2.75;2.75;;;;;;;;4956263;28;8866;-83
2022/07/13 15:15:45;;;;;;;;;3.75;2.00;;;;;;;;4956059;28;8887;-83
2022/07/13 15:18:14;;;;;;;;;2.25;2.25;;;;;;;;4954250;28;8953;-84
2022/07/13 15:20:41;;;;;;;;;3.00;3.00;;;;;;;;4961261;28;8911;-84
2022/07/13 15:23:09;;;;;;;;;3.75;3.75;;;;;;;;4959570;28;8907;-85
2022/07/13 15:25:37;;;;;;;;;3.25;3.25;;;;;;;;4936105;28;9296;-82
2022/07/13 15:28:04;;;;;;;;;3.25;3.25;;;;;;;;4955578;28;8863;-85
2022/07/13 15:30:32;;;;;;;;;1.75;1.75;;;;;;;;4955935;28;8806;-80
2022/07/13 15:32:59;;;;;;;;;2.00;2.00;;;;;;;;4941267;28;8903;-80
2022/07/13 15:35:28;;;;;;;;;2.00;2.00;;;;;;;;4956909;28;8892;-80